sensor_id;sensor_type;location;lat;lon;timestamp;temperature;humidity
12481;DHT22;6305;48.398;11.762;2023-05-07T00:02:21;9.60;99.90
12481;DHT22;6305;48.398;11.762;2023-05-07T00:04:48;9.50;99.90
12481;DHT22;6305;48.398;11.762;2023-05-07T00:07:15;9.60;99.90
12481;DHT22;6305;48.398;11.762;2023-05-07T00:09:42;9.50;99.90
12481;DHT22;6305;48.398;11.762;2023-05-07T00:12:10;9.60;99.90
12481;DHT22;6305;48.398;11.762;2023-05-07T00:14:37;9.60;99.90
12481;DHT22;6305;48.398;11.762;2023-05-07T00:17:03;9.60;99.90
12481;DHT22;6305;48.398;11.762;2023-05-07T00:19:32;9.60;99.90
12481;DHT22;6305;48.398;11.762;2023-05-07T00:21:59;9.60;99.90
12481;DHT22;6305;48.398;11.762;2023-05-07T00:24:26;9.60;99.90
12481;DHT22;6305;48.398;11.762;2023-05-07T00:26:53;9.60;99.90
12481;DHT22;6305;48.398;11.762;2023-05-07T00:29:20;9.60;99.90
12481;DHT22;6305;48.398;11.762;2023-05-07T00:31:49;9.60;99.90
12481;DHT22;6305;48.398;11.762;2023-05-07T00:34:16;9.60;99.90
12481;DHT22;6305;48.398;11.762;2023-05-07T00:36:44;9.50;99.90
12481;DHT22;6305;48.398;11.762;2023-05-07T00:39:11;9.50;99.90
12481;DHT22;6305;48.398;11.762;2023-05-07T00:41:38;9.50;99.90
12481;DHT22;6305;48.398;11.762;2023-05-07T00:44:05;9.60;99.90
12481;DHT22;6305;48.398;11.762;2023-05-07T00:46:32;9.60;99.90
12481;DHT22;6305;48.398;11.762;2023-05-07T00:48:59;9.60;99.90
12481;DHT22;6305;48.398;11.762;2023-05-07T00:51:28;9.50;99.90
12481;DHT22;6305;48.398;11.762;2023-05-07T00:53:57;9.60;99.90
12481;DHT22;6305;48.398;11.762;2023-05-07T00:56:24;9.60;99.90
12481;DHT22;6305;48.398;11.762;2023-05-07T00:58:51;9.60;99.90
12481;DHT22;6305;48.398;11.762;2023-05-07T01:01:18;9.60;99.90
12481;DHT22;6305;48.398;11.762;2023-05-07T01:03:45;9.70;99.90
12481;DHT22;6305;48.398;11.762;2023-05-07T01:06:13;9.60;99.90
12481;DHT22;6305;48.398;11.762;2023-05-07T01:08:42;9.60;99.90
12481;DHT22;6305;48.398;11.762;2023-05-07T01:11:11;9.70;99.90
12481;DHT22;6305;48.398;11.762;2023-05-07T01:13:39;9.60;99.90
12481;DHT22;6305;48.398;11.762;2023-05-07T01:16:08;9.60;99.90
12481;DHT22;6305;48.398;11.762;2023-05-07T01:18:36;9.70;99.90
12481;DHT22;6305;48.398;11.762;2023-05-07T01:21:04;9.60;99.90
12481;DHT22;6305;48.398;11.762;2023-05-07T01:23:34;9.60;99.90
12481;DHT22;6305;48.398;11.762;2023-05-07T01:26:01;9.60;99.90
12481;DHT22;6305;48.398;11.762;2023-05-07T01:28:31;9.60;99.90
12481;DHT22;6305;48.398;11.762;2023-05-07T01:31:02;9.60;99.90
12481;DHT22;6305;48.398;11.762;2023-05-07T01:33:32;9.60;99.90
12481;DHT22;6305;48.398;11.762;2023-05-07T01:36:00;9.60;99.90
12481;DHT22;6305;48.398;11.762;2023-05-07T01:38:30;9.50;99.90
12481;DHT22;6305;48.398;11.762;2023-05-07T01:40:58;9.50;99.90
12481;DHT22;6305;48.398;11.762;2023-05-07T01:43:26;9.60;99.90
12481;DHT22;6305;48.398;11.762;2023-05-07T01:45:53;9.50;99.90
12481;DHT22;6305;48.398;11.762;2023-05-07T01:48:21;9.50;99.90
12481;DHT22;6305;48.398;11.762;2023-05-07T01:50:48;9.50;99.90
12481;DHT22;6305;48.398;11.762;2023-05-07T01:53:15;9.50;99.90
12481;DHT22;6305;48.398;11.762;2023-05-07T01:55:43;9.50;99.90
12481;DHT22;6305;48.398;11.762;2023-05-07T01:58:12;9.50;99.90
12481;DHT22;6305;48.398;11.762;2023-05-07T02:00:39;9.40;99.90
12481;DHT22;6305;48.398;11.762;2023-05-07T02:03:07;9.40;99.90
12481;DHT22;6305;48.398;11.762;2023-05-07T02:05:46;9.40;99.90
12481;DHT22;6305;48.398;11.762;2023-05-07T02:08:27;9.40;99.90
12481;DHT22;6305;48.398;11.762;2023-05-07T02:10:54;9.30;99.90
12481;DHT22;6305;48.398;11.762;2023-05-07T02:13:24;9.30;99.90
12481;DHT22;6305;48.398;11.762;2023-05-07T02:15:51;9.20;99.90
12481;DHT22;6305;48.398;11.762;2023-05-07T02:18:20;9.20;99.90
12481;DHT22;6305;48.398;11.762;2023-05-07T02:20:47;9.20;99.90
12481;DHT22;6305;48.398;11.762;2023-05-07T02:23:14;9.20;99.90
12481;DHT22;6305;48.398;11.762;2023-05-07T02:25:42;9.20;99.90
12481;DHT22;6305;48.398;11.762;2023-05-07T02:28:09;9.20;99.90
12481;DHT22;6305;48.398;11.762;2023-05-07T02:30:46;9.20;99.90
12481;DHT22;6305;48.398;11.762;2023-05-07T02:33:13;9.20;99.90
12481;DHT22;6305;48.398;11.762;2023-05-07T02:35:40;9.10;99.90
12481;DHT22;6305;48.398;11.762;2023-05-07T02:38:08;9.10;99.90
12481;DHT22;6305;48.398;11.762;2023-05-07T02:40:36;9.20;99.90
12481;DHT22;6305;48.398;11.762;2023-05-07T02:43:05;9.20;99.90
12481;DHT22;6305;48.398;11.762;2023-05-07T02:45:32;9.10;99.90
12481;DHT22;6305;48.398;11.762;2023-05-07T02:48:02;9.10;99.90
12481;DHT22;6305;48.398;11.762;2023-05-07T02:50:29;9.10;99.90
12481;DHT22;6305;48.398;11.762;2023-05-07T02:52:56;9.00;99.90
12481;DHT22;6305;48.398;11.762;2023-05-07T02:55:23;9.00;99.90
12481;DHT22;6305;48.398;11.762;2023-05-07T02:57:50;8.90;99.90
12481;DHT22;6305;48.398;11.762;2023-05-07T03:00:19;9.00;99.90
12481;DHT22;6305;48.398;11.762;2023-05-07T03:03:08;9.00;99.90
12481;DHT22;6305;48.398;11.762;2023-05-07T03:05:36;9.00;99.90
12481;DHT22;6305;48.398;11.762;2023-05-07T03:08:03;8.90;99.90
12481;DHT22;6305;48.398;11.762;2023-05-07T03:10:31;9.00;99.90
12481;DHT22;6305;48.398;11.762;2023-05-07T03:12:58;8.90;99.90
12481;DHT22;6305;48.398;11.762;2023-05-07T03:15:24;8.90;99.90
12481;DHT22;6305;48.398;11.762;2023-05-07T03:17:52;8.90;99.90
12481;DHT22;6305;48.398;11.762;2023-05-07T03:20:20;8.90;99.90
12481;DHT22;6305;48.398;11.762;2023-05-07T03:22:47;8.90;99.90
12481;DHT22;6305;48.398;11.762;2023-05-07T03:25:14;8.80;99.90
12481;DHT22;6305;48.398;11.762;2023-05-07T03:27:41;8.80;99.90
12481;DHT22;6305;48.398;11.762;2023-05-07T03:30:09;8.80;99.90
12481;DHT22;6305;48.398;11.762;2023-05-07T03:32:36;8.80;99.90
12481;DHT22;6305;48.398;11.762;2023-05-07T03:35:07;8.70;99.90
12481;DHT22;6305;48.398;11.762;2023-05-07T03:37:35;8.70;99.90
12481;DHT22;6305;48.398;11.762;2023-05-07T03:40:03;8.70;99.90
12481;DHT22;6305;48.398;11.762;2023-05-07T03:42:36;8.70;99.90
12481;DHT22;6305;48.398;11.762;2023-05-07T03:45:04;8.70;99.90
12481;DHT22;6305;48.398;11.762;2023-05-07T03:47:31;8.70;99.90
12481;DHT22;6305;48.398;11.762;2023-05-07T03:49:59;8.70;99.90
12481;DHT22;6305;48.398;11.762;2023-05-07T03:52:26;8.60;99.90
12481;DHT22;6305;48.398;11.762;2023-05-07T03:54:58;8.60;99.90
12481;DHT22;6305;48.398;11.762;2023-05-07T03:57:26;8.60;99.90
12481;DHT22;6305;48.398;11.762;2023-05-07T03:59:53;8.60;99.90
12481;DHT22;6305;48.398;11.762;2023-05-07T04:02:20;8.70;99.90
12481;DHT22;6305;48.398;11.762;2023-05-07T04:04:48;8.70;99.90
12481;DHT22;6305;48.398;11.762;2023-05-07T04:07:15;8.70;99.90
12481;DHT22;6305;48.398;11.762;2023-05-07T04:09:47;8.70;99.90
12481;DHT22;6305;48.398;11.762;2023-05-07T04:12:16;8.70;99.90
12481;DHT22;6305;48.398;11.762;2023-05-07T04:14:42;8.70;99.90
12481;DHT22;6305;48.398;11.762;2023-05-07T04:17:09;8.80;99.90
12481;DHT22;6305;48.398;11.762;2023-05-07T04:19:38;8.80;99.90
12481;DHT22;6305;48.398;11.762;2023-05-07T04:22:05;8.80;99.90
12481;DHT22;6305;48.398;11.762;2023-05-07T04:24:32;8.80;99.90
12481;DHT22;6305;48.398;11.762;2023-05-07T04:27:01;8.90;99.90
12481;DHT22;6305;48.398;11.762;2023-05-07T04:29:29;8.90;99.90
12481;DHT22;6305;48.398;11.762;2023-05-07T04:31:56;8.90;99.90
12481;DHT22;6305;48.398;11.762;2023-05-07T04:34:24;8.90;99.90
12481;DHT22;6305;48.398;11.762;2023-05-07T04:36:52;9.00;99.90
12481;DHT22;6305;48.398;11.762;2023-05-07T04:39:19;9.00;99.90
12481;DHT22;6305;48.398;11.762;2023-05-07T04:41:48;9.10;99.90
12481;DHT22;6305;48.398;11.762;2023-05-07T04:44:15;9.20;99.90
12481;DHT22;6305;48.398;11.762;2023-05-07T04:46:44;9.30;99.90
12481;DHT22;6305;48.398;11.762;2023-05-07T04:49:11;9.40;99.90
12481;DHT22;6305;48.398;11.762;2023-05-07T04:51:38;9.50;99.90
12481;DHT22;6305;48.398;11.762;2023-05-07T04:54:09;9.70;99.90
12481;DHT22;6305;48.398;11.762;2023-05-07T04:56:36;10.00;99.90
12481;DHT22;6305;48.398;11.762;2023-05-07T04:59:03;10.40;99.90
12481;DHT22;6305;48.398;11.762;2023-05-07T05:01:31;10.70;99.90
12481;DHT22;6305;48.398;11.762;2023-05-07T05:03:59;11.00;99.90
12481;DHT22;6305;48.398;11.762;2023-05-07T05:06:26;11.40;99.90
12481;DHT22;6305;48.398;11.762;2023-05-07T05:08:53;11.90;99.90
12481;DHT22;6305;48.398;11.762;2023-05-07T05:11:21;12.50;99.90
12481;DHT22;6305;48.398;11.762;2023-05-07T05:13:48;13.00;99.90
12481;DHT22;6305;48.398;11.762;2023-05-07T05:16:18;13.60;99.90
12481;DHT22;6305;48.398;11.762;2023-05-07T05:18:45;14.10;99.90
12481;DHT22;6305;48.398;11.762;2023-05-07T05:21:16;14.50;99.90
12481;DHT22;6305;48.398;11.762;2023-05-07T05:23:46;14.90;99.90
12481;DHT22;6305;48.398;11.762;2023-05-07T05:26:17;15.40;99.90
12481;DHT22;6305;48.398;11.762;2023-05-07T05:28:44;15.70;99.90
12481;DHT22;6305;48.398;11.762;2023-05-07T05:31:11;15.60;99.90
12481;DHT22;6305;48.398;11.762;2023-05-07T05:33:40;15.40;99.90
12481;DHT22;6305;48.398;11.762;2023-05-07T05:36:09;15.20;99.90
12481;DHT22;6305;48.398;11.762;2023-05-07T05:38:39;15.40;99.90
12481;DHT22;6305;48.398;11.762;2023-05-07T05:41:07;15.70;99.90
12481;DHT22;6305;48.398;11.762;2023-05-07T05:43:35;15.90;99.90
12481;DHT22;6305;48.398;11.762;2023-05-07T05:46:02;16.10;99.90
12481;DHT22;6305;48.398;11.762;2023-05-07T05:48:30;16.00;99.90
12481;DHT22;6305;48.398;11.762;2023-05-07T05:51:00;15.90;99.90
12481;DHT22;6305;48.398;11.762;2023-05-07T05:53:26;15.80;99.90
12481;DHT22;6305;48.398;11.762;2023-05-07T05:55:56;15.90;99.90
12481;DHT22;6305;48.398;11.762;2023-05-07T05:58:23;16.20;99.90
12481;DHT22;6305;48.398;11.762;2023-05-07T06:00:56;16.60;99.90
12481;DHT22;6305;48.398;11.762;2023-05-07T06:03:25;17.20;99.90
12481;DHT22;6305;48.398;11.762;2023-05-07T06:05:53;17.80;99.90
12481;DHT22;6305;48.398;11.762;2023-05-07T06:08:21;18.30;99.90
12481;DHT22;6305;48.398;11.762;2023-05-07T06:10:48;18.90;99.90
12481;DHT22;6305;48.398;11.762;2023-05-07T06:13:17;19.20;99.90
12481;DHT22;6305;48.398;11.762;2023-05-07T06:15:44;19.80;99.90
12481;DHT22;6305;48.398;11.762;2023-05-07T06:18:12;20.40;99.90
12481;DHT22;6305;48.398;11.762;2023-05-07T06:20:40;20.90;99.90
12481;DHT22;6305;48.398;11.762;2023-05-07T06:23:12;21.70;99.10
12481;DHT22;6305;48.398;11.762;2023-05-07T06:25:39;22.30;92.70
12481;DHT22;6305;48.398;11.762;2023-05-07T06:28:06;23.20;89.00
12481;DHT22;6305;48.398;11.762;2023-05-07T06:30:37;24.10;78.30
12481;DHT22;6305;48.398;11.762;2023-05-07T06:33:04;24.80;72.60
12481;DHT22;6305;48.398;11.762;2023-05-07T06:35:31;25.80;66.40
12481;DHT22;6305;48.398;11.762;2023-05-07T06:37:59;26.80;62.00
12481;DHT22;6305;48.398;11.762;2023-05-07T06:40:28;27.80;58.40
12481;DHT22;6305;48.398;11.762;2023-05-07T06:42:57;29.10;55.40
12481;DHT22;6305;48.398;11.762;2023-05-07T06:45:43;30.20;51.90
12481;DHT22;6305;48.398;11.762;2023-05-07T06:48:10;30.80;50.20
12481;DHT22;6305;48.398;11.762;2023-05-07T06:50:48;31.70;48.70
12481;DHT22;6305;48.398;11.762;2023-05-07T06:53:15;32.90;46.70
12481;DHT22;6305;48.398;11.762;2023-05-07T06:55:43;33.90;44.40
12481;DHT22;6305;48.398;11.762;2023-05-07T06:58:11;33.90;43.10
12481;DHT22;6305;48.398;11.762;2023-05-07T07:00:38;34.50;42.80
12481;DHT22;6305;48.398;11.762;2023-05-07T07:03:07;35.00;41.50
12481;DHT22;6305;48.398;11.762;2023-05-07T07:05:35;35.10;40.50
12481;DHT22;6305;48.398;11.762;2023-05-07T07:08:03;35.50;40.70
12481;DHT22;6305;48.398;11.762;2023-05-07T07:10:30;36.30;40.00
12481;DHT22;6305;48.398;11.762;2023-05-07T07:12:59;36.70;39.00
12481;DHT22;6305;48.398;11.762;2023-05-07T07:15:26;36.80;37.80
12481;DHT22;6305;48.398;11.762;2023-05-07T07:17:54;36.30;37.70
12481;DHT22;6305;48.398;11.762;2023-05-07T07:20:24;36.40;38.80
12481;DHT22;6305;48.398;11.762;2023-05-07T07:22:52;36.20;38.50
12481;DHT22;6305;48.398;11.762;2023-05-07T07:25:19;36.40;38.30
12481;DHT22;6305;48.398;11.762;2023-05-07T07:27:47;36.30;38.20
12481;DHT22;6305;48.398;11.762;2023-05-07T07:30:14;36.10;38.30
12481;DHT22;6305;48.398;11.762;2023-05-07T07:32:45;35.20;38.40
12481;DHT22;6305;48.398;11.762;2023-05-07T07:35:12;35.20;39.70
12481;DHT22;6305;48.398;11.762;2023-05-07T07:37:41;35.60;39.40
12481;DHT22;6305;48.398;11.762;2023-05-07T07:40:09;36.10;39.00
12481;DHT22;6305;48.398;11.762;2023-05-07T07:42:36;36.70;37.70
12481;DHT22;6305;48.398;11.762;2023-05-07T07:45:04;37.00;37.90
12481;DHT22;6305;48.398;11.762;2023-05-07T07:47:34;37.60;37.10
12481;DHT22;6305;48.398;11.762;2023-05-07T07:50:02;38.30;36.60
12481;DHT22;6305;48.398;11.762;2023-05-07T07:52:29;38.60;36.00
12481;DHT22;6305;48.398;11.762;2023-05-07T07:54:57;39.00;35.80
12481;DHT22;6305;48.398;11.762;2023-05-07T07:57:24;39.50;35.00
12481;DHT22;6305;48.398;11.762;2023-05-07T07:59:52;39.90;34.20
12481;DHT22;6305;48.398;11.762;2023-05-07T08:02:19;40.00;34.10
12481;DHT22;6305;48.398;11.762;2023-05-07T08:04:49;40.50;34.00
12481;DHT22;6305;48.398;11.762;2023-05-07T08:07:16;40.30;33.30
12481;DHT22;6305;48.398;11.762;2023-05-07T08:09:47;40.70;33.40
12481;DHT22;6305;48.398;11.762;2023-05-07T08:12:18;40.80;33.00
12481;DHT22;6305;48.398;11.762;2023-05-07T08:14:45;40.80;33.00
12481;DHT22;6305;48.398;11.762;2023-05-07T08:17:12;40.90;33.10
12481;DHT22;6305;48.398;11.762;2023-05-07T08:19:42;40.60;32.60
12481;DHT22;6305;48.398;11.762;2023-05-07T08:22:11;40.60;32.90
12481;DHT22;6305;48.398;11.762;2023-05-07T08:24:39;40.30;32.90
12481;DHT22;6305;48.398;11.762;2023-05-07T08:27:07;40.60;33.00
12481;DHT22;6305;48.398;11.762;2023-05-07T08:29:35;40.90;32.80
12481;DHT22;6305;48.398;11.762;2023-05-07T08:32:03;40.40;32.30
12481;DHT22;6305;48.398;11.762;2023-05-07T08:34:30;40.10;32.60
12481;DHT22;6305;48.398;11.762;2023-05-07T08:36:59;40.10;33.30
12481;DHT22;6305;48.398;11.762;2023-05-07T08:39:27;40.70;33.20
12481;DHT22;6305;48.398;11.762;2023-05-07T08:41:55;41.10;32.10
12481;DHT22;6305;48.398;11.762;2023-05-07T08:44:26;41.50;32.30
12481;DHT22;6305;48.398;11.762;2023-05-07T08:46:56;41.80;31.20
12481;DHT22;6305;48.398;11.762;2023-05-07T08:49:24;41.50;31.30
12481;DHT22;6305;48.398;11.762;2023-05-07T08:51:52;41.70;31.10
12481;DHT22;6305;48.398;11.762;2023-05-07T08:54:20;41.80;30.90
12481;DHT22;6305;48.398;11.762;2023-05-07T08:56:48;41.70;30.80
12481;DHT22;6305;48.398;11.762;2023-05-07T08:59:15;41.40;31.20
12481;DHT22;6305;48.398;11.762;2023-05-07T09:01:44;41.10;31.20
12481;DHT22;6305;48.398;11.762;2023-05-07T09:04:13;40.80;31.00
12481;DHT22;6305;48.398;11.762;2023-05-07T09:06:40;39.90;31.30
12481;DHT22;6305;48.398;11.762;2023-05-07T09:09:09;38.90;32.40
12481;DHT22;6305;48.398;11.762;2023-05-07T09:11:42;38.60;33.20
12481;DHT22;6305;48.398;11.762;2023-05-07T09:14:10;38.40;33.90
12481;DHT22;6305;48.398;11.762;2023-05-07T09:16:41;39.10;34.10
12481;DHT22;6305;48.398;11.762;2023-05-07T09:19:08;39.40;32.40
12481;DHT22;6305;48.398;11.762;2023-05-07T09:21:37;39.90;32.20
12481;DHT22;6305;48.398;11.762;2023-05-07T09:24:08;40.10;31.50
12481;DHT22;6305;48.398;11.762;2023-05-07T09:26:40;39.90;31.40
12481;DHT22;6305;48.398;11.762;2023-05-07T09:29:09;39.30;31.00
12481;DHT22;6305;48.398;11.762;2023-05-07T09:31:37;38.50;32.50
12481;DHT22;6305;48.398;11.762;2023-05-07T09:34:05;38.90;32.50
12481;DHT22;6305;48.398;11.762;2023-05-07T09:36:34;38.40;32.00
12481;DHT22;6305;48.398;11.762;2023-05-07T09:39:03;37.30;33.70
12481;DHT22;6305;48.398;11.762;2023-05-07T09:41:31;37.50;34.90
12481;DHT22;6305;48.398;11.762;2023-05-07T09:44:06;37.50;34.50
12481;DHT22;6305;48.398;11.762;2023-05-07T09:46:38;37.50;35.00
12481;DHT22;6305;48.398;11.762;2023-05-07T09:49:20;37.50;34.10
12481;DHT22;6305;48.398;11.762;2023-05-07T09:51:51;36.90;34.10
12481;DHT22;6305;48.398;11.762;2023-05-07T09:54:21;36.00;34.00
12481;DHT22;6305;48.398;11.762;2023-05-07T09:56:52;35.20;34.10
12481;DHT22;6305;48.398;11.762;2023-05-07T09:59:23;34.70;35.10
12481;DHT22;6305;48.398;11.762;2023-05-07T10:01:52;35.00;34.40
12481;DHT22;6305;48.398;11.762;2023-05-07T10:04:23;34.40;35.30
12481;DHT22;6305;48.398;11.762;2023-05-07T10:06:52;34.80;37.00
12481;DHT22;6305;48.398;11.762;2023-05-07T10:09:23;35.60;36.20
12481;DHT22;6305;48.398;11.762;2023-05-07T10:11:51;36.10;34.60
12481;DHT22;6305;48.398;11.762;2023-05-07T10:14:21;35.70;35.50
12481;DHT22;6305;48.398;11.762;2023-05-07T10:16:48;36.70;34.50
12481;DHT22;6305;48.398;11.762;2023-05-07T10:19:16;36.60;33.30
12481;DHT22;6305;48.398;11.762;2023-05-07T10:21:53;36.10;33.70
12481;DHT22;6305;48.398;11.762;2023-05-07T10:24:27;36.30;33.90
12481;DHT22;6305;48.398;11.762;2023-05-07T10:26:59;36.90;32.70
12481;DHT22;6305;48.398;11.762;2023-05-07T10:29:34;37.40;30.50
12481;DHT22;6305;48.398;11.762;2023-05-07T10:34:56;35.20;33.50
12481;DHT22;6305;48.398;11.762;2023-05-07T10:37:25;36.40;34.20
12481;DHT22;6305;48.398;11.762;2023-05-07T10:39:57;36.70;32.70
12481;DHT22;6305;48.398;11.762;2023-05-07T10:42:26;37.00;32.10
12481;DHT22;6305;48.398;11.762;2023-05-07T10:44:54;37.30;31.40
12481;DHT22;6305;48.398;11.762;2023-05-07T10:47:26;37.30;29.90
12481;DHT22;6305;48.398;11.762;2023-05-07T10:50:22;37.60;30.80
12481;DHT22;6305;48.398;11.762;2023-05-07T10:56:26;39.70;29.70
12481;DHT22;6305;48.398;11.762;2023-05-07T10:59:35;40.30;29.50
12481;DHT22;6305;48.398;11.762;2023-05-07T11:02:19;41.00;28.90
12481;DHT22;6305;48.398;11.762;2023-05-07T11:05:19;41.70;28.80
12481;DHT22;6305;48.398;11.762;2023-05-07T11:07:54;42.10;27.90
12481;DHT22;6305;48.398;11.762;2023-05-07T11:10:22;41.10;27.50
12481;DHT22;6305;48.398;11.762;2023-05-07T11:13:01;39.30;28.90
12481;DHT22;6305;48.398;11.762;2023-05-07T11:15:44;37.50;30.00
12481;DHT22;6305;48.398;11.762;2023-05-07T11:18:21;36.80;32.00
12481;DHT22;6305;48.398;11.762;2023-05-07T11:20:55;37.50;31.00
12481;DHT22;6305;48.398;11.762;2023-05-07T11:23:59;37.70;29.70
12481;DHT22;6305;48.398;11.762;2023-05-07T11:26:48;38.10;30.30
12481;DHT22;6305;48.398;11.762;2023-05-07T11:29:18;38.50;29.90
12481;DHT22;6305;48.398;11.762;2023-05-07T11:31:49;38.70;29.90
12481;DHT22;6305;48.398;11.762;2023-05-07T11:34:21;39.20;29.30
12481;DHT22;6305;48.398;11.762;2023-05-07T11:36:49;39.30;28.90
12481;DHT22;6305;48.398;11.762;2023-05-07T11:39:25;39.30;28.80
12481;DHT22;6305;48.398;11.762;2023-05-07T11:41:53;39.80;27.90
12481;DHT22;6305;48.398;11.762;2023-05-07T11:44:21;40.10;28.20
12481;DHT22;6305;48.398;11.762;2023-05-07T11:46:48;40.00;27.30
12481;DHT22;6305;48.398;11.762;2023-05-07T11:49:15;38.30;28.60
12481;DHT22;6305;48.398;11.762;2023-05-07T11:51:42;36.40;29.50
12481;DHT22;6305;48.398;11.762;2023-05-07T11:54:10;34.60;31.90
12481;DHT22;6305;48.398;11.762;2023-05-07T11:56:39;33.40;34.70
12481;DHT22;6305;48.398;11.762;2023-05-07T11:59:06;33.30;35.30
12481;DHT22;6305;48.398;11.762;2023-05-07T12:01:36;34.20;34.60
12481;DHT22;6305;48.398;11.762;2023-05-07T12:04:03;34.90;33.80
12481;DHT22;6305;48.398;11.762;2023-05-07T12:06:30;35.80;32.60
12481;DHT22;6305;48.398;11.762;2023-05-07T12:08:57;36.50;31.40
12481;DHT22;6305;48.398;11.762;2023-05-07T12:11:25;37.00;31.20
12481;DHT22;6305;48.398;11.762;2023-05-07T12:13:53;37.40;30.90
12481;DHT22;6305;48.398;11.762;2023-05-07T12:16:21;37.40;30.40
12481;DHT22;6305;48.398;11.762;2023-05-07T12:18:50;37.40;30.00
12481;DHT22;6305;48.398;11.762;2023-05-07T12:21:18;37.30;29.90
12481;DHT22;6305;48.398;11.762;2023-05-07T12:23:45;37.00;29.80
12481;DHT22;6305;48.398;11.762;2023-05-07T12:26:12;36.20;30.40
12481;DHT22;6305;48.398;11.762;2023-05-07T12:28:39;35.70;31.00
12481;DHT22;6305;48.398;11.762;2023-05-07T12:31:07;35.00;31.20
12481;DHT22;6305;48.398;11.762;2023-05-07T12:33:34;34.60;31.90
12481;DHT22;6305;48.398;11.762;2023-05-07T12:36:07;34.30;31.50
12481;DHT22;6305;48.398;11.762;2023-05-07T12:38:36;34.50;32.70
12481;DHT22;6305;48.398;11.762;2023-05-07T12:41:04;34.90;32.30
12481;DHT22;6305;48.398;11.762;2023-05-07T12:43:32;35.40;32.20
12481;DHT22;6305;48.398;11.762;2023-05-07T12:46:01;36.00;31.50
12481;DHT22;6305;48.398;11.762;2023-05-07T12:48:28;36.30;30.50
12481;DHT22;6305;48.398;11.762;2023-05-07T12:50:56;36.20;30.30
12481;DHT22;6305;48.398;11.762;2023-05-07T12:53:26;36.10;30.10
12481;DHT22;6305;48.398;11.762;2023-05-07T12:55:55;35.90;30.40
12481;DHT22;6305;48.398;11.762;2023-05-07T12:58:25;36.00;30.30
12481;DHT22;6305;48.398;11.762;2023-05-07T13:00:54;36.00;30.90
12481;DHT22;6305;48.398;11.762;2023-05-07T13:03:28;36.10;30.30
12481;DHT22;6305;48.398;11.762;2023-05-07T13:05:57;36.30;30.20
12481;DHT22;6305;48.398;11.762;2023-05-07T13:08:27;36.30;30.20
12481;DHT22;6305;48.398;11.762;2023-05-07T13:10:55;36.30;30.30
12481;DHT22;6305;48.398;11.762;2023-05-07T13:13:22;36.20;30.40
12481;DHT22;6305;48.398;11.762;2023-05-07T13:15:49;36.70;30.70
12481;DHT22;6305;48.398;11.762;2023-05-07T13:18:16;37.00;29.20
12481;DHT22;6305;48.398;11.762;2023-05-07T13:20:43;37.10;29.10
12481;DHT22;6305;48.398;11.762;2023-05-07T13:23:10;36.80;28.90
12481;DHT22;6305;48.398;11.762;2023-05-07T13:25:38;36.00;29.60
12481;DHT22;6305;48.398;11.762;2023-05-07T13:28:05;35.20;30.00
12481;DHT22;6305;48.398;11.762;2023-05-07T13:30:32;34.40;30.70
12481;DHT22;6305;48.398;11.762;2023-05-07T13:32:59;33.30;32.70
12481;DHT22;6305;48.398;11.762;2023-05-07T13:35:26;33.20;33.80
12481;DHT22;6305;48.398;11.762;2023-05-07T13:37:53;32.60;33.30
12481;DHT22;6305;48.398;11.762;2023-05-07T13:40:21;31.90;34.80
12481;DHT22;6305;48.398;11.762;2023-05-07T13:42:49;31.90;36.20
12481;DHT22;6305;48.398;11.762;2023-05-07T13:45:17;32.10;36.40
12481;DHT22;6305;48.398;11.762;2023-05-07T13:47:44;32.30;36.20
12481;DHT22;6305;48.398;11.762;2023-05-07T13:50:12;32.60;35.00
12481;DHT22;6305;48.398;11.762;2023-05-07T13:52:41;32.70;34.60
12481;DHT22;6305;48.398;11.762;2023-05-07T13:55:11;32.30;34.30
12481;DHT22;6305;48.398;11.762;2023-05-07T13:57:38;32.10;35.90
12481;DHT22;6305;48.398;11.762;2023-05-07T14:00:09;31.90;36.40
12481;DHT22;6305;48.398;11.762;2023-05-07T14:02:42;31.60;36.80
12481;DHT22;6305;48.398;11.762;2023-05-07T14:05:09;31.30;37.30
12481;DHT22;6305;48.398;11.762;2023-05-07T14:07:36;30.80;37.30
12481;DHT22;6305;48.398;11.762;2023-05-07T14:10:04;30.50;38.00
12481;DHT22;6305;48.398;11.762;2023-05-07T14:12:32;30.20;38.50
12481;DHT22;6305;48.398;11.762;2023-05-07T14:14:59;30.00;39.20
12481;DHT22;6305;48.398;11.762;2023-05-07T14:17:28;30.00;39.00
12481;DHT22;6305;48.398;11.762;2023-05-07T14:19:57;29.80;38.30
12481;DHT22;6305;48.398;11.762;2023-05-07T14:22:24;29.50;40.10
12481;DHT22;6305;48.398;11.762;2023-05-07T14:24:51;29.30;39.60
12481;DHT22;6305;48.398;11.762;2023-05-07T14:27:18;29.20;39.50
12481;DHT22;6305;48.398;11.762;2023-05-07T14:29:45;29.30;39.60
12481;DHT22;6305;48.398;11.762;2023-05-07T14:32:16;29.20;40.00
12481;DHT22;6305;48.398;11.762;2023-05-07T14:34:45;29.20;40.20
12481;DHT22;6305;48.398;11.762;2023-05-07T14:37:12;29.20;39.60
12481;DHT22;6305;48.398;11.762;2023-05-07T14:39:39;29.00;39.50
12481;DHT22;6305;48.398;11.762;2023-05-07T14:42:07;28.90;39.80
12481;DHT22;6305;48.398;11.762;2023-05-07T14:44:34;28.80;41.20
12481;DHT22;6305;48.398;11.762;2023-05-07T14:47:01;28.70;41.90
12481;DHT22;6305;48.398;11.762;2023-05-07T14:49:28;28.60;42.00
12481;DHT22;6305;48.398;11.762;2023-05-07T14:51:57;28.30;42.20
12481;DHT22;6305;48.398;11.762;2023-05-07T14:54:24;28.10;43.00
12481;DHT22;6305;48.398;11.762;2023-05-07T14:56:52;28.00;43.10
12481;DHT22;6305;48.398;11.762;2023-05-07T14:59:19;28.00;42.70
12481;DHT22;6305;48.398;11.762;2023-05-07T15:01:47;27.90;43.50
12481;DHT22;6305;48.398;11.762;2023-05-07T15:04:14;27.90;43.50
12481;DHT22;6305;48.398;11.762;2023-05-07T15:06:42;27.80;43.60
12481;DHT22;6305;48.398;11.762;2023-05-07T15:09:10;27.80;44.50
12481;DHT22;6305;48.398;11.762;2023-05-07T15:11:37;27.70;44.60
12481;DHT22;6305;48.398;11.762;2023-05-07T15:14:06;27.80;43.80
12481;DHT22;6305;48.398;11.762;2023-05-07T15:16:33;27.70;43.10
12481;DHT22;6305;48.398;11.762;2023-05-07T15:19:00;27.50;43.10
12481;DHT22;6305;48.398;11.762;2023-05-07T15:21:30;27.30;43.60
12481;DHT22;6305;48.398;11.762;2023-05-07T15:24:00;27.20;44.00
12481;DHT22;6305;48.398;11.762;2023-05-07T15:26:28;27.10;44.50
12481;DHT22;6305;48.398;11.762;2023-05-07T15:28:55;27.00;45.70
12481;DHT22;6305;48.398;11.762;2023-05-07T15:31:23;26.80;45.30
12481;DHT22;6305;48.398;11.762;2023-05-07T15:33:50;26.70;46.30
12481;DHT22;6305;48.398;11.762;2023-05-07T15:36:17;26.60;46.00
12481;DHT22;6305;48.398;11.762;2023-05-07T15:38:44;26.40;46.00
12481;DHT22;6305;48.398;11.762;2023-05-07T15:41:11;26.20;46.50
12481;DHT22;6305;48.398;11.762;2023-05-07T15:43:44;26.10;46.80
12481;DHT22;6305;48.398;11.762;2023-05-07T15:46:12;26.00;47.40
12481;DHT22;6305;48.398;11.762;2023-05-07T15:48:43;25.90;47.70
12481;DHT22;6305;48.398;11.762;2023-05-07T15:51:11;25.60;47.70
12481;DHT22;6305;48.398;11.762;2023-05-07T15:53:40;25.40;48.10